createdAt,value
2022-09-22T00:01:16.264Z,3.10
2022-09-22T00:03:46.472Z,3.07
2022-09-22T00:06:19.140Z,3.60
2022-09-22T00:08:53.288Z,2.50
2022-09-22T00:11:28.898Z,3.17
2022-09-22T00:14:11.299Z,3.83
2022-09-22T00:16:50.142Z,3.27
2022-09-22T00:19:24.304Z,3.00
2022-09-22T00:21:51.310Z,3.43
2022-09-22T00:24:20.111Z,2.63
2022-09-22T00:26:47.447Z,2.83
2022-09-22T00:29:18.329Z,2.90
2022-09-22T00:31:46.353Z,2.80
2022-09-22T00:34:19.233Z,2.80
2022-09-22T00:36:46.527Z,3.10
2022-09-22T00:39:14.054Z,3.27
2022-09-22T00:41:45.633Z,3.03
2022-09-22T00:44:21.670Z,3.37
2022-09-22T00:46:53.753Z,2.83
2022-09-22T00:49:27.820Z,3.00
2022-09-22T00:51:54.353Z,2.70
2022-09-22T00:54:20.859Z,2.90
2022-09-22T00:56:57.202Z,3.00
2022-09-22T00:59:26.132Z,2.93
2022-09-22T01:01:53.107Z,2.80
2022-09-22T01:04:19.571Z,2.87
2022-09-22T01:06:46.476Z,2.57
2022-09-22T01:09:13.805Z,3.10
2022-09-22T01:11:41.696Z,2.67
2022-09-22T01:14:26.422Z,2.63
2022-09-22T01:17:09.485Z,2.87
2022-09-22T01:19:57.286Z,3.00
2022-09-22T01:23:05.530Z,3.10
2022-09-22T01:25:50.461Z,2.70
2022-09-22T01:28:50.838Z,2.90
2022-09-22T01:31:25.994Z,2.50
2022-09-22T01:34:06.247Z,3.00
2022-09-22T01:36:47.633Z,2.77
2022-09-22T01:39:20.320Z,2.63
2022-09-22T01:42:02.484Z,2.70
2022-09-22T01:44:42.236Z,2.80
2022-09-22T01:47:23.984Z,2.60
2022-09-22T01:49:58.961Z,2.90
2022-09-22T01:52:29.006Z,2.97
2022-09-22T01:55:03.879Z,2.77
2022-09-22T01:57:53.795Z,3.30
2022-09-22T02:00:20.995Z,3.00
2022-09-22T02:02:53.635Z,2.60
2022-09-22T02:05:47.489Z,3.00
2022-09-22T02:08:20.026Z,2.87
2022-09-22T02:10:48.657Z,2.80
2022-09-22T02:13:15.500Z,2.47
2022-09-22T02:16:02.187Z,2.40
2022-09-22T02:18:39.880Z,2.77
2022-09-22T02:21:06.693Z,2.80
2022-09-22T02:23:33.560Z,2.80
2022-09-22T02:26:03.911Z,2.97
2022-09-22T02:28:33.432Z,2.67
2022-09-22T02:31:19.429Z,2.50
2022-09-22T02:33:47.661Z,2.37
2022-09-22T02:36:35.944Z,2.47
2022-09-22T02:39:18.524Z,2.57
2022-09-22T02:42:06.734Z,2.93
2022-09-22T02:44:49.333Z,2.80
2022-09-22T02:47:28.787Z,2.80
2022-09-22T02:49:56.362Z,2.50
2022-09-22T02:52:24.314Z,2.50
2022-09-22T02:54:53.280Z,2.77
2022-09-22T02:57:20.404Z,2.33
2022-09-22T02:59:47.644Z,2.60
2022-09-22T03:02:14.136Z,2.73
2022-09-22T03:04:40.659Z,3.00
2022-09-22T03:07:07.267Z,2.70
2022-09-22T03:09:33.860Z,2.50
2022-09-22T03:12:00.434Z,2.80
2022-09-22T03:14:27.471Z,2.73
2022-09-22T03:16:54.081Z,2.60
2022-09-22T03:19:20.529Z,2.37
2022-09-22T03:21:46.960Z,2.90
2022-09-22T03:24:13.429Z,2.77
2022-09-22T03:26:40.151Z,2.67
2022-09-22T03:29:06.604Z,2.60
2022-09-22T03:31:32.981Z,2.90
2022-09-22T03:34:00.112Z,3.13
2022-09-22T03:36:27.201Z,2.80
2022-09-22T03:38:53.686Z,2.73
2022-09-22T03:41:20.486Z,3.00
2022-09-22T03:43:47.391Z,3.13
2022-09-22T03:46:14.260Z,3.30
2022-09-22T03:48:44.922Z,3.20
2022-09-22T03:51:12.125Z,2.87
2022-09-22T03:53:38.550Z,2.97
2022-09-22T03:56:11.250Z,2.90
2022-09-22T03:58:38.431Z,2.93
2022-09-22T04:01:06.179Z,2.63
2022-09-22T04:03:33.980Z,2.70
2022-09-22T04:06:02.791Z,2.40
2022-09-22T04:08:29.750Z,2.70
2022-09-22T04:10:57.747Z,2.73
2022-09-22T04:13:24.287Z,2.90
2022-09-22T04:15:50.700Z,3.00
2022-09-22T04:18:17.777Z,2.70
2022-09-22T04:20:44.389Z,2.60
2022-09-22T04:23:12.104Z,2.60
2022-09-22T04:25:38.594Z,2.70
2022-09-22T04:28:06.021Z,2.80
2022-09-22T04:30:33.308Z,2.70
2022-09-22T04:33:00.156Z,2.60
2022-09-22T04:35:28.383Z,2.67
2022-09-22T04:37:56.007Z,2.20
2022-09-22T04:40:24.154Z,2.70
2022-09-22T04:42:51.439Z,3.03
2022-09-22T04:45:18.608Z,2.80
2022-09-22T04:47:50.148Z,2.57
2022-09-22T04:50:18.664Z,3.10
2022-09-22T04:52:50.506Z,2.60
2022-09-22T04:55:18.196Z,2.37
2022-09-22T04:57:49.073Z,2.40
2022-09-22T05:00:16.847Z,2.60
2022-09-22T05:02:43.746Z,2.30
2022-09-22T05:05:11.448Z,2.20
2022-09-22T05:07:42.702Z,2.27
2022-09-22T05:10:11.201Z,2.40
2022-09-22T05:12:41.502Z,2.67
2022-09-22T05:15:09.206Z,2.30
2022-09-22T05:17:36.436Z,2.57
2022-09-22T05:20:05.109Z,2.17
2022-09-22T05:22:35.219Z,2.57
2022-09-22T05:25:04.501Z,2.57
2022-09-22T05:27:30.953Z,2.70
2022-09-22T05:29:57.568Z,2.60
2022-09-22T05:32:24.161Z,2.40
2022-09-22T05:34:50.587Z,2.73
2022-09-22T05:37:17.092Z,2.50
2022-09-22T05:39:44.762Z,2.70
2022-09-22T05:42:11.424Z,2.50
2022-09-22T05:44:37.858Z,2.80
2022-09-22T05:47:04.415Z,2.80
2022-09-22T05:49:30.857Z,2.70
2022-09-22T05:51:58.916Z,2.93
2022-09-22T05:54:25.395Z,2.87
2022-09-22T05:56:51.908Z,2.70
2022-09-22T05:59:18.721Z,2.63
2022-09-22T06:01:45.230Z,3.40
2022-09-22T06:04:11.767Z,3.23
2022-09-22T06:06:38.198Z,3.17
2022-09-22T06:09:04.712Z,3.00
2022-09-22T06:11:31.167Z,2.90
2022-09-22T06:13:57.656Z,3.17
2022-09-22T06:16:24.270Z,3.10
2022-09-22T06:18:50.843Z,3.13
2022-09-22T06:21:17.542Z,3.20
2022-09-22T06:23:44.340Z,3.60
2022-09-22T06:26:11.012Z,3.20
2022-09-22T06:28:37.497Z,3.30
2022-09-22T06:31:03.947Z,3.33
2022-09-22T06:33:30.832Z,3.07
2022-09-22T06:36:01.755Z,3.70
2022-09-22T06:38:31.873Z,3.77
2022-09-22T06:41:02.748Z,3.20
2022-09-22T06:43:29.219Z,3.33
2022-09-22T06:46:00.058Z,3.40
2022-09-22T06:48:27.544Z,2.90
2022-09-22T06:50:54.308Z,3.00
2022-09-22T06:53:24.738Z,2.80
2022-09-22T06:55:54.293Z,2.70
2022-09-22T06:58:22.125Z,3.20
2022-09-22T07:00:49.009Z,3.03
2022-09-22T07:03:24.262Z,3.47
2022-09-22T07:06:00.819Z,3.00
2022-09-22T07:08:32.817Z,2.53
2022-09-22T07:11:08.027Z,2.60
2022-09-22T07:13:39.453Z,3.17
2022-09-22T07:16:16.494Z,3.30
2022-09-22T07:18:48.948Z,3.00
2022-09-22T07:21:20.941Z,2.97
2022-09-22T07:23:49.952Z,2.90
2022-09-22T07:26:22.286Z,2.70
2022-09-22T07:28:53.597Z,2.77
2022-09-22T07:31:22.958Z,2.83
2022-09-22T07:33:54.294Z,2.93
2022-09-22T07:36:28.855Z,3.13
2022-09-22T07:38:57.782Z,3.47
2022-09-22T07:41:30.264Z,3.33
2022-09-22T07:44:19.199Z,3.10
2022-09-22T07:46:47.743Z,2.90
2022-09-22T07:49:22.241Z,3.57
2022-09-22T07:51:49.717Z,3.80
2022-09-22T07:54:16.799Z,3.27
2022-09-22T07:56:44.415Z,3.33
2022-09-22T07:59:13.446Z,3.50
2022-09-22T08:01:44.150Z,3.50
2022-09-22T08:04:16.836Z,3.10
2022-09-22T08:06:48.698Z,3.30
2022-09-22T08:09:15.715Z,3.40
2022-09-22T08:11:48.436Z,3.30
2022-09-22T08:14:21.394Z,3.30
2022-09-22T08:16:51.257Z,2.93
2022-09-22T08:19:18.561Z,3.00
2022-09-22T08:21:49.140Z,3.07
2022-09-22T08:24:21.472Z,3.23
2022-09-22T08:26:52.662Z,3.20
2022-09-22T08:29:20.736Z,2.70
2022-09-22T08:31:49.156Z,3.60
2022-09-22T08:34:18.288Z,3.10
2022-09-22T08:36:47.402Z,4.07
2022-09-22T08:39:15.909Z,2.90
2022-09-22T08:41:56.002Z,3.30
2022-09-22T08:44:37.328Z,3.10
2022-09-22T08:47:04.575Z,3.23
2022-09-22T08:49:56.068Z,3.43
2022-09-22T08:52:48.122Z,2.90
2022-09-22T08:55:23.364Z,2.90
2022-09-22T08:58:01.047Z,3.07
2022-09-22T09:00:42.929Z,2.60
2022-09-22T09:03:27.969Z,2.13
2022-09-22T09:06:00.289Z,2.10
2022-09-22T09:08:47.333Z,2.20
2022-09-22T09:11:51.308Z,2.10
2022-09-22T09:15:03.478Z,2.37
2022-09-22T09:17:32.463Z,2.10
2022-09-22T09:20:12.786Z,2.20
2022-09-22T09:22:48.588Z,2.13
2022-09-22T09:25:23.060Z,2.40
2022-09-22T09:27:57.048Z,2.20
2022-09-22T09:30:24.276Z,2.43
2022-09-22T09:33:00.624Z,1.90
2022-09-22T09:35:48.359Z,2.10
2022-09-22T09:38:18.055Z,2.30
2022-09-22T09:40:52.965Z,1.70
2022-09-22T09:43:23.507Z,1.97
2022-09-22T09:46:14.943Z,1.90
2022-09-22T09:49:05.540Z,1.63
2022-09-22T09:51:41.192Z,1.73
2022-09-22T09:54:14.437Z,1.63
2022-09-22T09:57:12.852Z,1.70
2022-09-22T10:00:00.165Z,1.90
2022-09-22T10:02:30.206Z,1.80
2022-09-22T10:05:08.195Z,1.57
2022-09-22T10:07:42.008Z,1.90
2022-09-22T10:10:34.628Z,1.43
2022-09-22T10:13:03.898Z,2.10
2022-09-22T10:15:35.623Z,1.70
2022-09-22T10:18:26.273Z,1.80
2022-09-22T10:23:58.208Z,1.60
2022-09-22T10:26:32.845Z,1.60
2022-09-22T10:29:18.888Z,1.43
2022-09-22T10:32:17.202Z,1.63
2022-09-22T10:34:51.418Z,1.30
2022-09-22T10:37:28.823Z,1.47
2022-09-22T10:40:03.567Z,1.60
2022-09-22T10:42:52.868Z,1.70
2022-09-22T10:45:23.332Z,2.00
2022-09-22T10:47:59.215Z,1.70
2022-09-22T10:50:50.684Z,1.50
2022-09-22T10:53:39.449Z,1.40
2022-09-22T10:56:15.085Z,1.40
2022-09-22T10:59:02.982Z,1.60
2022-09-22T11:01:55.039Z,1.57
2022-09-22T11:04:40.578Z,1.50
2022-09-22T11:07:41.243Z,1.40
2022-09-22T11:10:51.577Z,1.60
2022-09-22T11:13:24.751Z,1.27
2022-09-22T11:16:13.274Z,1.77
2022-09-22T11:19:07.329Z,1.63
2022-09-22T11:21:52.141Z,1.60
2022-09-22T11:24:38.163Z,1.50
2022-09-22T11:27:10.045Z,1.30
2022-09-22T11:30:11.025Z,1.70
2022-09-22T11:32:49.741Z,1.37
2022-09-22T11:35:40.639Z,1.43
2022-09-22T11:38:51.810Z,1.60
2022-09-22T11:41:31.182Z,1.50
2022-09-22T11:44:20.316Z,1.40
2022-09-22T11:47:15.541Z,1.10
2022-09-22T11:50:17.279Z,1.47
2022-09-22T11:53:05.777Z,1.70
2022-09-22T11:56:13.052Z,1.40
2022-09-22T11:58:42.139Z,1.27
2022-09-22T12:01:21.966Z,1.30
2022-09-22T12:03:57.650Z,1.10
2022-09-22T12:06:30.345Z,1.30
2022-09-22T12:09:06.915Z,1.53
2022-09-22T12:11:36.728Z,1.30
2022-09-22T12:14:04.731Z,1.40
2022-09-22T12:16:41.957Z,1.20
2022-09-22T12:19:25.087Z,1.30
2022-09-22T12:22:05.404Z,1.40
2022-09-22T12:24:32.744Z,1.43
2022-09-22T12:27:11.325Z,1.30
2022-09-22T12:29:38.881Z,1.30
2022-09-22T12:32:05.966Z,1.50
2022-09-22T12:34:39.795Z,1.43
2022-09-22T12:37:19.303Z,1.30
2022-09-22T12:39:48.368Z,1.33
2022-09-22T12:42:34.651Z,1.57
2022-09-22T12:45:21.095Z,1.27
2022-09-22T12:47:53.922Z,1.40
2022-09-22T12:50:23.471Z,1.20
2022-09-22T12:52:50.729Z,1.37
2022-09-22T12:55:30.329Z,1.37
2022-09-22T12:58:02.524Z,1.30
2022-09-22T13:00:36.360Z,1.40
2022-09-22T13:03:24.712Z,1.47
2022-09-22T13:05:53.535Z,1.70
2022-09-22T13:08:31.125Z,1.20
2022-09-22T13:11:03.898Z,1.43
2022-09-22T13:13:40.492Z,1.60
2022-09-22T13:16:16.614Z,1.73
2022-09-22T13:18:44.858Z,1.30
2022-09-22T13:21:14.128Z,1.30
2022-09-22T13:23:59.055Z,1.10
2022-09-22T13:26:38.919Z,1.20
2022-09-22T13:29:14.713Z,1.20
2022-09-22T13:31:51.005Z,1.30
2022-09-22T13:34:33.224Z,1.27
2022-09-22T13:37:01.408Z,1.40
2022-09-22T13:39:33.942Z,1.30
2022-09-22T13:42:11.870Z,1.47
2022-09-22T13:44:41.908Z,1.17
2022-09-22T13:47:23.414Z,1.10
2022-09-22T13:49:54.936Z,1.47
2022-09-22T13:52:27.274Z,1.30
2022-09-22T13:55:08.520Z,1.20
2022-09-22T13:57:37.591Z,1.17
2022-09-22T14:00:08.626Z,1.27
2022-09-22T14:02:35.289Z,1.50
2022-09-22T14:05:08.143Z,1.20
2022-09-22T14:07:49.446Z,1.20
2022-09-22T14:10:28.037Z,1.57
2022-09-22T14:12:56.228Z,1.30
2022-09-22T14:15:38.598Z,1.30
2022-09-22T14:18:25.995Z,1.73
2022-09-22T14:20:56.293Z,1.10
2022-09-22T14:23:28.825Z,1.40
2022-09-22T14:25:59.095Z,1.20
2022-09-22T14:28:29.752Z,1.20
2022-09-22T14:30:57.517Z,1.40
2022-09-22T14:33:27.896Z,1.23
2022-09-22T14:36:02.964Z,1.20
2022-09-22T14:38:35.616Z,1.53
2022-09-22T14:41:21.627Z,1.23
2022-09-22T14:43:50.999Z,1.37
2022-09-22T14:46:43.239Z,1.30
2022-09-22T14:49:37.856Z,1.20
2022-09-22T14:52:14.981Z,1.37
2022-09-22T14:54:44.592Z,2.33
2022-09-22T14:57:15.437Z,1.60
2022-09-22T15:00:08.389Z,1.37
2022-09-22T15:02:40.348Z,1.60
2022-09-22T15:05:09.259Z,1.30
2022-09-22T15:07:39.514Z,1.37
2022-09-22T15:10:19.424Z,1.17
2022-09-22T15:12:49.517Z,1.50
2022-09-22T15:15:29.111Z,1.30
2022-09-22T15:18:16.236Z,1.57
2022-09-22T15:21:11.283Z,1.30
2022-09-22T15:23:45.212Z,1.40
2022-09-22T15:26:19.821Z,1.40
2022-09-22T15:28:50.942Z,1.07
2022-09-22T15:31:22.366Z,1.40
2022-09-22T15:33:49.350Z,1.10
2022-09-22T15:36:20.086Z,1.30
2022-09-22T15:38:47.697Z,1.20
2022-09-22T15:41:20.264Z,1.20
2022-09-22T15:43:47.595Z,1.27
2022-09-22T15:46:28.046Z,1.93
2022-09-22T15:49:24.771Z,1.30
2022-09-22T15:51:51.833Z,1.10
2022-09-22T15:54:21.766Z,1.17
2022-09-22T15:56:52.467Z,1.30
2022-09-22T15:59:22.911Z,1.23
2022-09-22T16:01:51.728Z,1.10
2022-09-22T16:04:19.682Z,1.30
2022-09-22T16:06:54.610Z,1.40
2022-09-22T16:09:21.411Z,1.20
2022-09-22T16:11:48.611Z,1.57
2022-09-22T16:14:15.305Z,1.20
2022-09-22T16:16:42.886Z,1.20
2022-09-22T16:19:09.996Z,1.20
2022-09-22T16:21:39.136Z,1.10
2022-09-22T16:24:08.568Z,1.60
2022-09-22T16:26:36.984Z,1.60
2022-09-22T16:29:04.982Z,1.23
2022-09-22T16:31:31.526Z,1.17
2022-09-22T16:34:01.577Z,1.00
2022-09-22T16:36:31.505Z,1.33
2022-09-22T16:38:59.001Z,1.20
2022-09-22T16:41:28.284Z,1.10
2022-09-22T16:43:56.866Z,1.10
2022-09-22T16:46:31.394Z,1.40
2022-09-22T16:49:06.014Z,1.27
2022-09-22T16:51:36.312Z,1.43
2022-09-22T16:54:05.522Z,1.40
2022-09-22T16:56:34.553Z,1.40
2022-09-22T16:59:01.620Z,1.63
2022-09-22T17:01:31.019Z,1.43
2022-09-22T17:04:00.486Z,1.87
2022-09-22T17:06:28.574Z,1.83
2022-09-22T17:09:00.206Z,1.70
2022-09-22T17:11:30.147Z,1.87
2022-09-22T17:14:03.525Z,1.77
2022-09-22T17:16:34.196Z,1.70
2022-09-22T17:19:04.599Z,1.67
2022-09-22T17:21:34.592Z,1.67
2022-09-22T17:24:02.568Z,1.80
2022-09-22T17:26:30.161Z,2.00
2022-09-22T17:28:59.656Z,2.20
2022-09-22T17:31:33.239Z,1.97
2022-09-22T17:34:00.097Z,2.00
2022-09-22T17:36:28.176Z,2.60
2022-09-22T17:39:04.051Z,2.60
2022-09-22T17:41:32.890Z,2.40
2022-09-22T17:44:04.418Z,2.70
2022-09-22T17:46:33.122Z,2.10
2022-09-22T17:49:19.093Z,2.50
2022-09-22T17:52:06.888Z,2.30
2022-09-22T17:54:57.534Z,2.83
2022-09-22T17:57:29.479Z,2.80
2022-09-22T17:59:57.838Z,2.77
2022-09-22T18:02:27.095Z,3.27
2022-09-22T18:04:54.369Z,2.93
2022-09-22T18:07:24.176Z,3.40
2022-09-22T18:09:51.960Z,2.90
2022-09-22T18:12:21.554Z,3.60
2022-09-22T18:14:50.466Z,4.10
2022-09-22T18:17:19.844Z,4.97
2022-09-22T18:19:47.701Z,5.67
2022-09-22T18:22:17.216Z,5.40
2022-09-22T18:24:44.359Z,4.47
2022-09-22T18:27:13.417Z,4.60
2022-09-22T18:29:39.825Z,4.30
2022-09-22T18:32:06.368Z,4.40
2022-09-22T18:34:32.841Z,3.97
2022-09-22T18:37:04.450Z,3.43
2022-09-22T18:39:31.255Z,3.33
2022-09-22T18:41:58.193Z,3.23
2022-09-22T18:44:29.015Z,3.00
2022-09-22T18:46:56.923Z,2.70
2022-09-22T18:49:23.931Z,2.93
2022-09-22T18:51:50.456Z,3.00
2022-09-22T18:54:19.527Z,3.33
2022-09-22T18:56:47.752Z,3.37
2022-09-22T18:59:24.448Z,3.20
2022-09-22T19:01:51.827Z,2.80
2022-09-22T19:04:21.264Z,2.70
2022-09-22T19:07:09.516Z,3.30
2022-09-22T19:09:36.814Z,2.83
2022-09-22T19:12:07.904Z,3.80
2022-09-22T19:14:39.669Z,4.20
2022-09-22T19:17:07.978Z,4.40
2022-09-22T19:19:37.044Z,4.80
2022-09-22T19:22:09.061Z,4.93
2022-09-22T19:24:37.142Z,5.53
2022-09-22T19:27:06.454Z,5.30
2022-09-22T19:29:33.476Z,4.73
2022-09-22T19:32:04.562Z,4.30
2022-09-22T19:34:31.476Z,3.97
2022-09-22T19:36:59.685Z,3.97
2022-09-22T19:39:26.742Z,3.90
2022-09-22T19:41:54.837Z,3.80
2022-09-22T19:44:22.659Z,4.00
2022-09-22T19:46:50.234Z,3.23
2022-09-22T19:49:18.016Z,3.30
2022-09-22T19:51:45.220Z,3.47
2022-09-22T19:54:12.002Z,3.17
2022-09-22T19:56:38.854Z,3.73
2022-09-22T19:59:09.018Z,3.43
2022-09-22T20:01:38.153Z,5.00
2022-09-22T20:04:05.836Z,5.33
2022-09-22T20:06:34.214Z,5.47
2022-09-22T20:09:03.820Z,5.47
2022-09-22T20:11:39.172Z,6.50
2022-09-22T20:14:27.040Z,5.13
2022-09-22T20:17:05.838Z,4.40
2022-09-22T20:19:34.758Z,4.20
2022-09-22T20:22:25.565Z,3.60
2022-09-22T20:24:54.869Z,3.33
2022-09-22T20:27:29.575Z,3.40
2022-09-22T20:29:57.628Z,3.70
2022-09-22T20:32:31.391Z,3.43
2022-09-22T20:34:58.224Z,3.43
2022-09-22T20:37:24.959Z,3.30
2022-09-22T20:39:52.081Z,3.40
2022-09-22T20:42:18.916Z,3.70
2022-09-22T20:44:46.800Z,4.40
2022-09-22T20:47:15.663Z,6.60
2022-09-22T20:49:43.376Z,7.67
2022-09-22T20:52:15.683Z,7.43
2022-09-22T20:54:47.153Z,6.70
2022-09-22T20:57:14.768Z,7.20
2022-09-22T20:59:42.472Z,8.50
2022-09-22T21:02:10.227Z,9.77
2022-09-22T21:04:36.697Z,7.87
2022-09-22T21:07:03.730Z,7.73
2022-09-22T21:09:48.811Z,20.50
2022-09-22T21:12:15.352Z,15.00
2022-09-22T21:14:45.714Z,11.27
2022-09-22T21:17:13.391Z,6.17
2022-09-22T21:19:40.099Z,4.97
2022-09-22T21:22:06.626Z,4.10
2022-09-22T21:24:34.081Z,4.60
2022-09-22T21:27:00.520Z,5.00
2022-09-22T21:29:29.685Z,4.80
2022-09-22T21:31:58.038Z,4.93
2022-09-22T21:34:24.803Z,4.97
2022-09-22T21:36:51.659Z,4.20
2022-09-22T21:39:19.004Z,4.20
2022-09-22T21:41:45.519Z,4.40
2022-09-22T21:44:12.274Z,4.17
2022-09-22T21:46:41.763Z,3.60
2022-09-22T21:49:09.133Z,3.63
2022-09-22T21:51:42.032Z,3.67
2022-09-22T21:54:12.918Z,3.43
2022-09-22T21:56:39.530Z,3.43
2022-09-22T21:59:05.989Z,3.40
2022-09-22T22:01:35.256Z,3.70
2022-09-22T22:04:03.320Z,3.87
2022-09-22T22:06:37.856Z,3.67
2022-09-22T22:09:06.951Z,3.40
2022-09-22T22:11:37.680Z,3.23
2022-09-22T22:14:07.043Z,3.30
2022-09-22T22:16:37.872Z,3.43
2022-09-22T22:19:09.963Z,3.30
2022-09-22T22:21:36.567Z,3.60
2022-09-22T22:24:28.383Z,3.57
2022-09-22T22:26:58.150Z,3.67
2022-09-22T22:29:31.578Z,3.50
2022-09-22T22:31:59.739Z,3.57
2022-09-22T22:34:26.383Z,2.97
2022-09-22T22:36:54.440Z,3.30
2022-09-22T22:39:20.935Z,3.50
2022-09-22T22:41:50.738Z,3.27
2022-09-22T22:44:18.261Z,3.63
2022-09-22T22:46:45.384Z,3.70
2022-09-22T22:49:12.380Z,3.57
2022-09-22T22:51:40.166Z,3.20
2022-09-22T22:54:06.675Z,3.53
2022-09-22T22:56:33.434Z,3.47
2022-09-22T22:59:00.426Z,3.60
2022-09-22T23:01:29.744Z,3.30
2022-09-22T23:04:04.613Z,3.80
2022-09-22T23:06:38.824Z,3.40
2022-09-22T23:09:08.226Z,3.20
2022-09-22T23:11:39.672Z,3.30
2022-09-22T23:14:08.493Z,3.30
2022-09-22T23:16:38.518Z,2.83
2022-09-22T23:19:07.756Z,2.80
2022-09-22T23:21:36.006Z,2.70
2022-09-22T23:24:03.471Z,2.60
2022-09-22T23:26:30.010Z,2.80
2022-09-22T23:28:59.507Z,2.93
2022-09-22T23:31:26.374Z,2.97
2022-09-22T23:33:53.758Z,3.00
2022-09-22T23:36:24.422Z,2.70
2022-09-22T23:39:03.535Z,3.30
2022-09-22T23:41:32.139Z,3.17
2022-09-22T23:43:59.343Z,3.00
2022-09-22T23:46:25.940Z,2.83
2022-09-22T23:48:52.415Z,2.97
2022-09-22T23:51:22.067Z,2.70
2022-09-22T23:53:49.121Z,2.77
2022-09-22T23:56:15.635Z,2.60
2022-09-22T23:58:42.227Z,2.90
